createdAt,value
2018-08-28T00:02:13.829Z,17.10
2018-08-28T00:04:44.483Z,17.10
2018-08-28T00:07:15.217Z,17.10
2018-08-28T00:09:46.044Z,17.10
2018-08-28T00:12:16.758Z,17.00
2018-08-28T00:14:47.550Z,17.00
2018-08-28T00:17:18.034Z,17.00
2018-08-28T00:19:48.497Z,17.00
2018-08-28T00:22:19.200Z,17.00
2018-08-28T00:24:49.957Z,17.10
2018-08-28T00:27:20.465Z,17.10
2018-08-28T00:29:51.004Z,17.10
2018-08-28T00:32:21.726Z,17.10
2018-08-28T00:34:52.541Z,17.10
2018-08-28T00:37:23.096Z,17.10
2018-08-28T00:39:53.849Z,17.00
2018-08-28T00:42:24.829Z,17.00
2018-08-28T00:44:55.501Z,17.00
2018-08-28T00:47:25.966Z,17.00
2018-08-28T00:49:56.684Z,17.00
2018-08-28T00:52:27.450Z,17.00
2018-08-28T00:54:58.350Z,17.10
2018-08-28T00:57:28.906Z,17.00
2018-08-28T00:59:59.571Z,17.00
2018-08-28T01:02:30.090Z,17.00
2018-08-28T01:05:00.740Z,17.00
2018-08-28T01:07:31.484Z,17.00
2018-08-28T01:10:02.297Z,17.00
2018-08-28T01:12:33.076Z,17.00
2018-08-28T01:15:03.546Z,17.00
2018-08-28T01:17:34.260Z,16.90
2018-08-28T01:20:05.552Z,17.00
2018-08-28T01:22:36.226Z,16.90
2018-08-28T01:25:07.917Z,16.90
2018-08-28T01:27:38.674Z,16.90
2018-08-28T01:30:09.389Z,16.90
2018-08-28T01:32:40.156Z,16.90
2018-08-28T01:35:10.861Z,16.90
2018-08-28T01:37:41.577Z,16.90
2018-08-28T01:40:12.421Z,16.80
2018-08-28T01:42:43.677Z,16.80
2018-08-28T01:45:14.361Z,16.80
2018-08-28T01:47:44.837Z,16.80
2018-08-28T01:50:15.922Z,16.80
2018-08-28T01:52:46.625Z,16.80
2018-08-28T01:55:17.368Z,16.90
2018-08-28T01:57:48.045Z,16.90
2018-08-28T02:00:18.786Z,16.80
2018-08-28T02:02:49.509Z,16.80
2018-08-28T02:05:20.220Z,16.80
2018-08-28T02:07:50.806Z,16.80
2018-08-28T02:10:21.719Z,16.90
2018-08-28T02:12:52.269Z,16.80
2018-08-28T02:15:22.742Z,16.90
2018-08-28T02:17:53.497Z,16.80
2018-08-28T02:20:24.507Z,16.80
2018-08-28T02:22:55.355Z,16.80
2018-08-28T02:25:26.110Z,16.80
2018-08-28T02:27:57.020Z,16.80
2018-08-28T02:30:28.083Z,16.80
2018-08-28T02:32:58.549Z,16.80
2018-08-28T02:35:29.239Z,16.80
2018-08-28T02:38:00.661Z,16.80
2018-08-28T02:40:31.449Z,16.80
2018-08-28T02:43:02.601Z,16.80
2018-08-28T02:45:33.253Z,16.80
2018-08-28T02:48:03.927Z,16.80
2018-08-28T02:50:34.888Z,16.80
2018-08-28T02:53:05.622Z,16.80
2018-08-28T02:55:36.398Z,16.80
2018-08-28T02:58:07.280Z,16.80
2018-08-28T03:00:37.950Z,16.80
2018-08-28T03:03:09.717Z,16.90
2018-08-28T03:05:40.374Z,16.90
2018-08-28T03:08:11.182Z,16.90
2018-08-28T03:10:41.870Z,16.90
2018-08-28T03:13:12.873Z,16.90
2018-08-28T03:15:43.685Z,16.90
2018-08-28T03:18:14.645Z,16.90
2018-08-28T03:20:45.338Z,16.90
2018-08-28T03:23:16.285Z,16.90
2018-08-28T03:25:46.962Z,17.00
2018-08-28T06:13:58.337Z,17.20
2018-08-28T06:16:29.407Z,17.30
2018-08-28T06:21:30.774Z,17.30
2018-08-28T06:24:01.451Z,17.40
2018-08-28T06:26:33.210Z,17.40
2018-08-28T06:31:35.342Z,17.60
2018-08-28T06:34:06.788Z,17.70
2018-08-28T06:39:09.556Z,17.60
2018-08-28T06:41:40.411Z,17.60
2018-08-28T06:46:42.613Z,17.70
2018-08-28T06:49:16.128Z,17.80
2018-08-28T06:54:17.961Z,17.80
2018-08-28T06:56:48.510Z,17.80
2018-08-28T07:01:49.438Z,18.00
2018-08-28T07:06:50.929Z,18.10
2018-08-28T07:14:22.510Z,18.40
2018-08-28T07:16:53.197Z,18.30
2018-08-28T07:19:23.988Z,18.40
2018-08-28T07:21:55.065Z,18.40
2018-08-28T07:24:25.890Z,18.40
2018-08-28T07:29:27.466Z,18.70
2018-08-28T07:31:58.041Z,18.80
2018-08-28T07:36:59.257Z,18.90
2018-08-28T07:39:29.766Z,19.10
2018-08-28T07:42:00.441Z,19.20
2018-08-28T07:44:31.216Z,19.20
2018-08-28T07:52:02.516Z,19.60
2018-08-28T07:54:33.208Z,19.80
2018-08-28T07:57:03.894Z,19.90
2018-08-28T07:59:34.667Z,20.00
2018-08-28T08:02:06.031Z,20.10
2018-08-28T08:04:37.212Z,20.30
2018-08-28T08:09:38.646Z,20.50
2018-08-28T08:12:09.492Z,20.50
2018-08-28T08:14:40.460Z,20.50
2018-08-28T08:22:11.461Z,20.50
2018-08-28T08:24:42.793Z,20.60
2018-08-28T08:27:13.616Z,21.00
2018-08-28T08:29:44.441Z,21.20
2018-08-28T08:32:15.123Z,21.30
2018-08-28T08:34:45.622Z,21.40
2018-08-28T08:39:46.761Z,23.50
2018-08-28T08:47:19.447Z,27.50
2018-08-28T08:49:50.341Z,27.70
2018-08-28T08:52:21.128Z,28.20
2018-08-28T08:57:22.409Z,28.50
2018-08-28T08:59:53.361Z,29.00
2018-08-28T09:04:54.831Z,29.60
2018-08-28T09:09:56.150Z,29.60
2018-08-28T09:14:57.508Z,30.90
2018-08-28T09:24:59.087Z,31.80
2018-08-28T09:30:00.133Z,30.80
2018-08-28T09:32:30.551Z,31.40
2018-08-28T09:35:01.050Z,31.50
2018-08-28T09:37:31.893Z,31.40
2018-08-28T09:40:02.719Z,30.20
2018-08-28T09:42:33.465Z,29.90
2018-08-28T09:45:04.250Z,30.30
2018-08-28T09:47:34.983Z,30.30
2018-08-28T09:50:06.391Z,31.50
2018-08-28T09:55:07.291Z,28.20
2018-08-28T09:57:38.249Z,26.60
2018-08-28T10:02:44.792Z,25.10
2018-08-28T10:10:16.279Z,27.30
2018-08-28T10:15:17.707Z,24.90
2018-08-28T10:22:49.395Z,24.30
2018-08-28T10:25:20.295Z,24.10
2018-08-28T10:27:50.999Z,24.70
2018-08-28T10:30:21.741Z,25.80
2018-08-28T10:37:53.786Z,26.50
2018-08-28T10:40:24.480Z,25.70
2018-08-28T10:42:55.252Z,25.20
2018-08-28T10:45:25.752Z,26.10
2018-08-28T10:47:56.612Z,25.80
2018-08-28T10:50:27.340Z,25.40
2018-08-28T10:55:28.845Z,25.50
2018-08-28T11:00:30.480Z,24.50
2018-08-28T11:05:32.086Z,24.10
2018-08-28T11:08:03.225Z,23.90
2018-08-28T11:10:34.195Z,23.80
2018-08-28T11:15:35.418Z,23.80
2018-08-28T11:18:06.414Z,24.00
2018-08-28T11:20:38.260Z,24.00
2018-08-28T11:23:09.012Z,24.00
2018-08-28T11:30:40.603Z,24.20
2018-08-28T11:33:11.457Z,24.30
2018-08-28T11:35:42.262Z,24.20
2018-08-28T11:38:14.243Z,24.30
2018-08-28T11:40:45.091Z,24.30
2018-08-28T11:43:15.849Z,24.20
2018-08-28T11:48:17.437Z,23.70
2018-08-28T11:50:48.558Z,23.70
2018-08-28T11:53:19.533Z,23.80
2018-08-28T11:58:21.369Z,23.60
2018-08-28T12:03:23.289Z,23.70
2018-08-28T12:05:54.255Z,23.50
2018-08-28T12:13:26.056Z,22.90
2018-08-28T12:15:56.944Z,23.20
2018-08-28T12:20:58.169Z,23.20
2018-08-28T12:23:29.190Z,23.40
2018-08-28T12:26:00.085Z,23.30
2018-08-28T12:28:30.926Z,23.50
2018-08-28T12:31:01.709Z,23.60
2018-08-28T12:33:33.670Z,23.50
2018-08-28T12:36:04.788Z,23.20
2018-08-28T12:43:36.603Z,23.50
2018-08-28T12:46:07.234Z,23.70
2018-08-28T12:53:39.938Z,24.00
2018-08-28T12:56:11.019Z,23.70
2018-08-28T13:01:12.187Z,23.90
2018-08-28T13:03:43.161Z,24.10
2018-08-28T13:08:45.033Z,23.80
2018-08-28T13:11:15.741Z,23.70
2018-08-28T13:13:47.261Z,24.00
2018-08-28T13:21:18.928Z,24.20
2018-08-28T13:23:49.689Z,24.10
2018-08-28T13:28:51.088Z,24.30
2018-08-28T13:31:21.935Z,24.20
2018-08-28T13:36:24.074Z,24.00
2018-08-28T13:38:54.779Z,23.70
2018-08-28T13:43:57.592Z,23.30
2018-08-28T13:46:28.478Z,23.00
2018-08-28T13:53:59.936Z,22.70
2018-08-28T13:56:30.450Z,22.60
2018-08-28T13:59:04.242Z,22.70
2018-08-28T14:01:34.965Z,22.80
2018-08-28T14:04:06.702Z,22.70
2018-08-28T14:11:39.130Z,22.50
2018-08-28T14:16:40.979Z,22.50
2018-08-28T14:26:43.603Z,22.40
2018-08-28T14:31:47.080Z,22.40
2018-08-28T14:39:22.234Z,22.10
2018-08-28T14:44:29.923Z,21.80
2018-08-28T14:47:02.244Z,21.60
2018-08-28T14:54:39.922Z,21.70
2018-08-28T14:57:11.497Z,21.80
2018-08-28T14:59:43.297Z,22.00
2018-08-28T15:02:14.271Z,22.00
2018-08-28T15:04:45.549Z,22.20
2018-08-28T15:07:20.152Z,22.20
2018-08-28T15:09:51.067Z,22.60
2018-08-28T15:12:23.105Z,22.70
2018-08-28T15:14:55.724Z,22.50
2018-08-28T15:17:27.168Z,22.60
2018-08-28T15:20:00.990Z,22.30
2018-08-28T15:22:32.555Z,22.50
2018-08-28T15:27:52.414Z,22.40
2018-08-28T15:30:27.565Z,22.40
2018-08-28T15:32:59.889Z,22.40
2018-08-28T15:35:34.402Z,22.40
2018-08-28T15:40:36.184Z,22.50
2018-08-28T15:48:09.192Z,22.20
2018-08-28T15:50:40.256Z,22.20
2018-08-28T15:53:11.312Z,22.20
2018-08-28T15:58:13.149Z,22.30
2018-08-28T16:03:14.775Z,22.30
2018-08-28T16:05:45.518Z,22.20
2018-08-28T16:08:16.276Z,22.10
2018-08-28T16:10:47.057Z,22.00
2018-08-28T16:13:19.510Z,22.00
2018-08-28T16:15:50.330Z,21.80
2018-08-28T16:18:22.000Z,21.50
2018-08-28T16:20:52.742Z,21.50
2018-08-28T16:23:34.854Z,21.50
2018-08-28T16:26:05.605Z,21.50
2018-08-28T16:28:36.497Z,21.50
2018-08-28T16:31:07.351Z,21.40
2018-08-28T16:41:09.548Z,21.30
2018-08-28T16:43:40.478Z,21.30
2018-08-28T16:51:17.115Z,21.40
2018-08-28T16:58:49.761Z,21.30
2018-08-28T17:01:20.883Z,21.10
2018-08-28T17:08:56.040Z,20.90
2018-08-28T17:16:29.075Z,20.60
2018-08-28T17:18:59.772Z,20.40
2018-08-28T17:21:30.646Z,20.30
2018-08-28T17:29:03.201Z,20.10
2018-08-28T17:31:34.670Z,20.00
2018-08-28T17:34:05.901Z,20.00
2018-08-28T17:36:36.752Z,19.80
2018-08-28T17:41:38.953Z,19.60
2018-08-28T17:49:10.860Z,19.10
2018-08-28T17:56:42.712Z,19.00
2018-08-28T17:59:13.413Z,18.80
2018-08-28T18:01:44.134Z,18.80
2018-08-28T18:09:15.726Z,18.70
2018-08-28T18:14:16.962Z,18.60
2018-08-28T18:16:47.517Z,18.50
2018-08-28T18:19:18.098Z,18.40
2018-08-28T18:24:19.383Z,18.30
2018-08-28T18:26:50.519Z,18.20
2018-08-28T18:29:21.365Z,18.10
2018-08-28T18:31:52.517Z,18.00
2018-08-28T18:41:54.771Z,17.50
2018-08-28T18:44:25.263Z,17.40
2018-08-28T18:54:28.692Z,17.10
2018-08-28T18:56:59.542Z,17.00
2018-08-28T19:07:01.579Z,16.90
2018-08-28T19:14:33.429Z,16.80
2018-08-28T19:29:37.326Z,16.20
2018-08-28T19:44:40.484Z,16.00
2018-08-28T19:52:11.966Z,15.80
2018-08-28T19:54:42.650Z,15.70
2018-08-28T19:59:43.679Z,15.60
2018-08-28T20:02:14.417Z,15.50
2018-08-28T20:04:44.855Z,15.50
2018-08-28T20:07:15.482Z,15.50
2018-08-28T20:09:46.335Z,15.60
2018-08-28T20:14:47.549Z,15.40
2018-08-28T20:46:11.389Z,25.60
2018-08-28T20:51:12.507Z,26.80
2018-08-28T21:28:22.805Z,22.60
2018-08-28T21:30:53.122Z,22.30
2018-08-28T21:33:23.665Z,22.10
2018-08-28T21:35:54.009Z,22.00
2018-08-28T21:38:24.991Z,22.00
2018-08-28T21:48:26.393Z,22.00
2018-08-28T21:53:27.281Z,22.00
